Airfield :
LOGIN :

Register | Disclaimer

   EN    FR    IT 

 










Legend :    VFR   Marginal VFR   IFR   Intensive IFR   Very Intensive IFR
Visi :
Ceiling :
>= 8 km
>= 3000ft
5 to 8 km
1000 to 3000 ft
1500m to 5 km
500 to 1000 ft
800 to 1500m
200 to 500 ft
< 800m
< 200 ft
Symbols :   Thunderstorms  Fog  Heavy snow  Heavy precipitations  Wind > 20 kt
SIGMETs :     Misc.  Thunderstorms  Icing  Turbulence  Mountain Waves  Volcanic Ashes






- Airport Elevation : 327 ft
- IATA code : BHX


EGBB - Birmingham

CURRENT METAR :
  • 232220Z VRB03KT 2200 BR OVC002 06/06 Q1026

EXPIRED METARs :
  • 232150Z 34005KT 1800 BR OVC002 06/06 Q1027
  • 232120Z 31005KT 280V350 1500 BR OVC002 05/05 Q1027
  • 232050Z 34005KT 2300 BR OVC002 06/06 Q1027
  • 232020Z 33005KT 300V010 1800 BR OVC002 06/06 Q1027
  • 231950Z 30005KT 1200 R15/P1500 BR OVC002 06/06 Q1027

TAF TAF EGBB
Valid from the 23 at 18:00 until the 24 at 18:00 UTC


231654Z 2318/2418 VRB03KT 8000 BKN004
BECMG 2318/2321 4000 BR
TEMPO 2318/2411 1200 -DZ
PROB30 2319/2410 0300 FG BKN001
BECMG 2411/2414 9999 NSW FEW009 SCT015
PROB40
TEMPO 2414/2418 7000 BKN009
ATIS : +44 121 780 0910



MET'MAP, your aeronautical weather chart ! - Copyright ORBIFLY December 2007 - Disclaimer

ORBIFLY MET'MAP TEAM :

Programming & Development : Alexandra Zaïnal
Concept & original design : Baudouin d'Aumeries
Assistance for programming : Marc-Olivier Méhu
Technical & hardware support : Manuel Goepfert

Contact : metmap@orbifly.com




SOURCES & CREDITS :

   NOAA